.
WxDataArchive / Data Records for 2016-01-08
2016-01-07 January 2016 2016-01-09

Data Records for Friday, 08 January 2016

Time	Temp	Chill	HIndex	Humid	Dewpt	 Wind 	HiWind	WindDir	Rain 	Barom
-----	----	-----	------	-----	-----	------	------	-------	-----	-----
00:00	33.4	33.4	33.4	66	23.3	0	1	135	0.00	30.031 
00:05	33.2	33.2	33.2	66	23.1	0	0	---	0.00	30.031 
00:10	33.2	33.2	33.2	66	23.1	0	1	135	0.00	30.031 
00:15	33.1	33.1	33.1	67	23.4	0	1	135	0.00	30.020 
00:20	33.1	33.1	33.1	67	23.4	0	0	---	0.00	30.020 
00:25	32.9	32.9	32.9	67	23.2	0	0	---	0.00	30.020 
00:30	32.8	32.8	32.8	67	23.1	0	0	---	0.00	30.026 
00:35	32.7	32.7	32.7	68	23.3	0	0	---	0.00	30.026 
00:40	32.4	32.4	32.4	68	23.0	0	0	---	0.00	30.026 
00:45	32.2	32.2	32.2	69	23.2	0	0	---	0.00	30.015 
00:50	32.2	32.2	32.2	69	23.2	0	0	---	0.00	30.015 
00:55	32.1	32.1	32.1	70	23.4	0	0	---	0.00	30.015 
01:00	31.9	31.9	31.9	70	23.2	0	1	135	0.00	30.011 
01:05	31.9	31.9	31.9	70	23.2	0	0	---	0.00	30.011 
01:10	31.9	31.9	31.9	70	23.2	0	0	---	0.00	30.011 
01:15	31.9	31.9	31.9	70	23.2	0	0	---	0.00	30.003 
01:20	31.8	31.8	31.8	70	23.2	0	0	---	0.00	30.003 
01:25	31.6	31.6	31.6	71	23.3	0	0	---	0.00	30.003 
01:30	31.6	31.6	31.6	71	23.3	0	1	135	0.00	29.995 
01:35	31.5	31.5	31.5	71	23.2	0	0	---	0.00	29.995 
01:40	31.5	31.5	31.5	71	23.2	0	0	---	0.00	29.995 
01:45	31.3	31.3	31.3	71	23.0	0	0	---	0.00	29.982 
01:50	31.5	31.5	31.5	71	23.2	0	2	135	0.00	29.982 
01:55	31.5	31.5	31.5	71	23.2	0	2	135	0.00	29.982 
02:00	31.6	31.6	31.6	71	23.3	0	3	135	0.00	29.978 
02:05	31.8	31.8	31.8	71	23.5	0	1	135	0.00	29.978 
02:10	31.8	31.8	31.8	70	23.2	0	1	135	0.00	29.978 
02:15	31.9	31.9	31.9	70	23.2	0	0	---	0.00	29.980 
02:20	31.9	31.9	31.9	70	23.2	0	1	135	0.00	29.980 
02:25	31.9	31.9	31.9	70	23.2	0	1	135	0.00	29.980 
02:30	31.9	31.9	31.9	71	23.6	0	1	135	0.00	29.972 
02:35	31.9	31.9	31.9	71	23.6	0	2	135	0.00	29.972 
02:40	31.9	31.9	31.9	72	23.9	0	1	135	0.00	29.972 
02:45	31.9	31.9	31.9	72	23.9	0	0	---	0.00	29.976 
02:50	31.8	31.8	31.8	72	23.8	0	1	135	0.00	29.976 
02:55	31.8	31.8	31.8	72	23.8	0	0	---	0.00	29.976 
03:00	31.6	31.6	31.6	73	24.0	0	0	---	0.00	29.981 
03:05	31.6	31.6	31.6	73	24.0	0	0	---	0.00	29.981 
03:10	31.5	31.5	31.5	73	23.9	0	0	---	0.00	29.981 
03:15	31.5	31.5	31.5	73	23.9	0	0	---	0.00	29.979 
03:20	31.5	31.5	31.5	74	24.2	0	1	135	0.00	29.979 
03:25	31.6	31.6	31.6	74	24.3	0	1	135	0.00	29.979 
03:30	31.8	31.8	31.8	74	24.5	0	1	135	0.00	29.980 
03:35	31.9	31.9	31.9	74	24.6	0	2	135	0.00	29.980 
03:40	32.2	32.2	32.2	74	24.9	0	2	135	0.00	29.980 
03:45	32.4	32.4	32.4	74	25.1	0	2	135	0.00	29.963 
03:50	32.5	32.5	32.5	74	25.2	0	2	135	0.00	29.963 
03:55	32.5	32.5	32.5	74	25.2	0	1	135	0.00	29.963 
04:00	32.5	32.5	32.5	73	24.8	0	0	---	0.00	29.954 
04:05	32.7	32.7	32.7	74	25.3	0	2	135	0.00	29.954 
04:10	32.7	32.7	32.7	74	25.3	0	2	135	0.00	29.954 
04:15	32.5	32.5	32.5	74	25.2	0	1	135	0.00	29.950 
04:20	32.5	32.5	32.5	74	25.2	0	1	135	0.00	29.950 
04:25	32.7	32.7	32.7	74	25.3	0	2	135	0.00	29.950 
04:30	32.7	32.7	32.7	74	25.3	0	2	135	0.00	29.949 
04:35	32.7	32.7	32.7	74	25.3	1	2	135	0.00	29.949 
04:40	32.8	32.8	32.8	75	25.8	1	3	135	0.00	29.949 
04:45	32.8	32.8	32.8	75	25.8	1	2	135	0.00	29.949 
04:50	32.9	32.9	32.9	75	25.9	1	3	135	0.00	29.949 
04:55	32.9	32.9	32.9	75	25.9	1	3	135	0.00	29.949 
05:00	32.9	32.9	32.9	75	25.9	1	3	135	0.00	29.935 
05:05	32.9	32.9	32.9	75	25.9	0	4	90	0.00	29.935 
05:10	32.9	32.9	32.9	76	26.2	0	1	90	0.00	29.935 
05:15	33.1	33.1	33.1	76	26.4	0	2	90	0.00	29.935 
05:20	33.1	33.1	33.1	76	26.4	0	1	90	0.00	29.935 
05:25	33.2	33.2	33.2	76	26.5	0	1	90	0.00	29.935 
05:30	33.2	33.2	33.2	76	26.5	1	3	90	0.00	29.934 
05:35	33.4	33.4	33.4	76	26.7	0	3	90	0.00	29.934 
05:40	33.4	33.4	33.4	76	26.7	0	1	90	0.00	29.934 
05:45	33.5	33.5	33.5	76	26.8	0	2	90	0.00	29.925 
05:50	33.5	33.5	33.5	76	26.8	0	2	90	0.00	29.925 
05:55	33.5	33.5	33.5	76	26.8	0	3	90	0.00	29.925 
06:00	33.7	33.7	33.7	76	27.0	0	2	90	0.00	29.932 
06:05	33.7	33.7	33.7	75	26.6	1	3	90	0.00	29.932 
06:10	33.8	33.8	33.8	75	26.7	1	3	90	0.00	29.932 
06:15	34.0	34.0	34.0	75	26.9	1	3	90	0.00	29.938 
06:20	34.0	34.0	34.0	76	27.2	0	1	90	0.00	29.938 
06:25	34.1	34.1	34.1	76	27.3	1	2	90	0.00	29.938 
06:30	34.1	34.1	34.1	77	27.7	0	3	90	0.00	29.934 
06:35	34.0	34.0	34.0	77	27.6	0	1	90	0.00	29.934 
06:40	34.0	34.0	34.0	78	27.9	0	2	90	0.00	29.934 
06:45	34.0	34.0	34.0	79	28.2	0	2	90	0.00	29.937 
06:50	33.8	33.8	33.8	80	28.3	0	1	90	0.01	29.937 
06:55	33.8	33.8	33.8	81	28.6	0	0	---	0.00	29.937 
07:00	33.7	33.7	33.7	82	28.8	0	1	90	0.00	29.935 
07:05	33.7	33.7	33.7	83	29.1	0	1	90	0.01	29.935 
07:10	33.5	33.5	33.5	84	29.2	0	1	90	0.00	29.935 
07:15	33.5	33.5	33.5	85	29.5	0	2	90	0.01	29.930 
07:20	33.4	33.4	33.4	86	29.7	0	1	90	0.00	29.930 
07:25	33.4	33.4	33.4	87	30.0	1	3	90	0.00	29.930 
07:30	33.4	33.4	33.4	87	30.0	1	3	90	0.01	29.929 
07:35	33.4	33.4	33.4	88	30.2	1	3	90	0.01	29.929 
07:40	33.2	33.2	33.2	88	30.0	1	3	90	0.00	29.929 
07:45	33.2	33.2	33.2	88	30.0	1	2	90	0.01	29.927 
07:50	33.2	33.2	33.2	89	30.3	1	3	90	0.00	29.927 
07:55	33.2	33.2	33.2	89	30.3	1	4	90	0.01	29.927 
08:00	33.2	33.2	33.2	90	30.6	1	5	90	0.00	29.924 
08:05	33.2	33.2	33.2	90	30.6	1	3	90	0.01	29.924 
08:10	33.4	33.4	33.4	90	30.8	1	3	90	0.00	29.924 
08:15	33.4	33.4	33.4	91	31.1	0	2	90	0.01	29.921 
08:20	33.5	33.5	33.5	91	31.2	0	2	90	0.00	29.921 
08:25	33.5	33.5	33.5	91	31.2	0	2	90	0.01	29.921 
08:30	33.5	33.5	33.5	91	31.2	1	3	90	0.00	29.914 
08:35	33.7	33.7	33.7	92	31.6	1	3	90	0.00	29.914 
08:40	33.8	33.8	33.8	92	31.7	1	3	90	0.01	29.914 
08:45	33.8	33.8	33.8	92	31.7	1	3	90	0.00	29.911 
08:50	34.0	34.0	34.0	92	31.9	1	4	90	0.00	29.911 
08:55	34.1	34.1	34.1	92	32.0	1	3	90	0.00	29.911 
09:00	34.3	34.3	34.3	92	32.2	1	3	90	0.00	29.911 
09:05	34.3	34.3	34.3	92	32.2	1	3	90	0.00	29.911 
09:10	34.4	34.4	34.4	93	32.6	1	3	90	0.01	29.911 
09:15	34.6	34.6	34.6	93	32.8	1	3	90	0.00	29.906 
09:20	34.7	34.7	34.7	93	32.9	1	2	90	0.00	29.906 
09:25	34.9	34.9	34.9	93	33.1	1	3	90	0.00	29.906 
09:30	34.9	34.9	34.9	93	33.1	1	3	90	0.00	29.904 
09:35	35.0	35.0	35.0	93	33.2	1	4	90	0.00	29.904 
09:40	35.2	35.2	35.2	93	33.4	1	4	90	0.00	29.904 
09:45	35.5	35.5	35.5	94	33.9	1	3	90	0.01	29.902 
09:50	35.6	35.6	35.6	94	34.0	1	3	90	0.00	29.902 
09:55	35.9	35.9	35.9	94	34.3	1	4	90	0.00	29.902 
10:00	36.0	36.0	36.0	94	34.4	1	3	90	0.00	29.899 
10:05	36.3	36.3	36.3	94	34.7	2	5	90	0.00	29.899 
10:10	36.3	36.3	36.3	94	34.7	1	3	112	0.00	29.899 
10:15	36.5	36.5	36.5	94	34.9	2	5	112	0.01	29.894 
10:20	36.5	36.5	36.5	94	34.9	2	4	90	0.00	29.894 
10:25	36.5	36.5	36.5	94	34.9	1	4	90	0.00	29.894 
10:30	36.6	36.6	36.6	94	35.0	1	3	90	0.01	29.891 
10:35	36.8	36.8	36.8	94	35.2	1	3	90	0.00	29.891 
10:40	36.9	36.9	36.9	95	35.6	2	4	90	0.01	29.891 
10:45	36.9	36.9	36.9	95	35.6	1	3	90	0.00	29.889 
10:50	37.0	37.0	37.0	95	35.7	1	3	90	0.00	29.889 
10:55	37.2	37.2	37.2	95	35.9	1	4	90	0.01	29.889 
11:00	37.3	37.3	37.3	95	36.0	1	3	90	0.00	29.883 
11:05	37.3	37.3	37.3	95	36.0	1	3	90	0.01	29.883 
11:10	37.3	37.3	37.3	95	36.0	2	4	90	0.00	29.883 
11:15	37.5	37.5	37.5	95	36.2	2	4	68	0.00	29.875 
11:20	37.5	37.5	37.5	95	36.2	2	3	68	0.01	29.875 
11:25	37.5	37.5	37.5	95	36.2	1	4	68	0.00	29.875 
11:30	37.6	37.6	37.6	95	36.3	2	6	68	0.00	29.870 
11:35	37.6	37.6	37.6	95	36.3	2	5	90	0.00	29.870 
11:40	37.6	37.6	37.6	95	36.3	1	3	90	0.01	29.870 
11:45	37.8	37.8	37.8	95	36.5	2	5	90	0.00	29.861 
11:50	37.9	37.9	37.9	95	36.6	2	4	90	0.00	29.861 
11:55	38.0	38.0	38.0	95	36.7	1	3	90	0.00	29.861 
12:00	38.2	38.2	38.2	95	36.9	2	5	90	0.00	29.858 
12:05	38.2	38.2	38.2	95	36.9	1	4	90	0.00	29.858 
12:10	38.2	38.2	38.2	95	36.9	1	3	90	0.00	29.858 
12:15	38.2	38.2	38.2	95	36.9	1	5	68	0.01	29.846 
12:20	38.2	38.2	38.2	95	36.9	1	3	68	0.00	29.846 
12:25	38.2	38.2	38.2	95	36.9	1	3	68	0.00	29.846 
12:30	38.2	38.2	38.2	95	36.9	1	3	68	0.00	29.839 
12:35	38.2	38.2	38.2	95	36.9	1	3	68	0.00	29.839 
12:40	38.3	38.3	38.3	95	37.0	1	3	68	0.00	29.839 
12:45	38.5	38.5	38.5	96	37.5	1	3	68	0.00	29.827 
12:50	38.6	38.6	38.6	96	37.6	0	3	68	0.00	29.827 
12:55	38.6	38.6	38.6	96	37.6	1	3	68	0.00	29.827 
13:00	38.8	38.8	38.8	96	37.8	0	2	68	0.00	29.818 
13:05	38.9	38.9	38.9	97	38.1	1	2	68	0.01	29.818 
13:10	39.1	39.1	39.1	96	38.1	1	2	68	0.00	29.818 
13:15	39.1	39.1	39.1	96	38.1	1	3	68	0.00	29.811 
13:20	39.2	39.2	39.2	96	38.2	0	2	68	0.00	29.811 
13:25	39.3	39.3	39.3	96	38.3	0	2	68	0.00	29.811 
13:30	39.5	39.5	39.5	96	38.5	0	2	68	0.00	29.807 
13:35	39.6	39.6	39.6	96	38.6	0	2	68	0.00	29.807 
13:40	39.6	39.6	39.6	96	38.6	0	2	68	0.00	29.807 
13:45	39.8	39.8	39.8	96	38.8	0	1	68	0.01	29.800 
13:50	39.9	39.9	39.9	96	38.9	0	1	68	0.00	29.800 
13:55	39.9	39.9	39.9	96	38.9	0	2	68	0.00	29.800 
14:00	40.1	40.1	40.1	96	39.1	0	1	68	0.00	29.796 
14:05	40.2	40.2	40.2	96	39.2	0	1	68	0.01	29.796 
14:10	40.2	40.2	40.2	96	39.2	0	2	68	0.01	29.796 
14:15	40.2	40.2	40.2	96	39.2	0	2	68	0.01	29.791 
14:20	40.3	40.3	40.3	96	39.3	0	0	---	0.01	29.791 
14:25	40.3	40.3	40.3	96	39.3	0	1	68	0.02	29.791 
14:30	40.5	40.5	40.5	96	39.5	0	1	68	0.01	29.785 
14:35	40.5	40.5	40.5	96	39.5	0	0	---	0.01	29.785 
14:40	40.5	40.5	40.5	96	39.5	0	1	68	0.00	29.785 
14:45	40.6	40.6	40.6	96	39.5	0	1	68	0.00	29.785 
14:50	40.6	40.6	40.6	96	39.5	0	1	68	0.00	29.785 
14:55	40.8	40.8	40.8	96	39.7	0	1	68	0.00	29.785 
15:00	40.9	40.9	40.9	96	39.8	0	1	68	0.01	29.781 
15:05	41.1	41.1	41.1	96	40.0	0	1	68	0.00	29.781 
15:10	41.3	41.3	41.3	96	40.2	0	2	68	0.00	29.781 
15:15	41.5	41.5	41.5	96	40.4	0	2	68	0.00	29.779 
15:20	41.6	41.6	41.6	96	40.5	0	2	68	0.01	29.779 
15:25	41.8	41.8	41.8	96	40.7	0	1	68	0.00	29.779 
15:30	41.8	41.8	41.8	96	40.7	0	1	68	0.01	29.776 
15:35	41.9	41.9	41.9	96	40.8	0	2	68	0.00	29.776 
15:40	41.9	41.9	41.9	96	40.8	0	3	68	0.00	29.776 
15:45	41.9	41.9	41.9	96	40.8	0	2	68	0.00	29.776 
15:50	41.9	41.9	41.9	96	40.8	0	2	68	0.00	29.776 
15:55	42.1	42.1	42.1	96	41.0	0	1	68	0.00	29.776 
16:00	42.1	42.1	42.1	96	41.0	0	1	68	0.00	29.775 
16:05	42.1	42.1	42.1	96	41.0	0	2	68	0.00	29.775 
16:10	42.1	42.1	42.1	96	41.0	0	0	---	0.00	29.775 
16:15	42.2	42.2	42.2	96	41.1	0	0	---	0.00	29.776 
16:20	42.3	42.3	42.3	96	41.2	0	1	68	0.00	29.776 
16:25	42.3	42.3	42.3	96	41.2	0	1	68	0.00	29.776 
16:30	42.5	42.5	42.5	96	41.4	0	2	68	0.00	29.775 
16:35	42.5	42.5	42.5	96	41.4	0	1	68	0.00	29.775 
16:40	42.6	42.6	42.6	96	41.5	0	2	68	0.00	29.775 
16:45	42.6	42.6	42.6	96	41.5	0	1	68	0.00	29.779 
16:50	42.6	42.6	42.6	96	41.5	0	1	68	0.00	29.779 
16:55	42.8	42.8	42.8	96	41.7	0	1	68	0.00	29.779 
17:00	42.8	42.8	42.8	96	41.7	0	1	68	0.00	29.778 
17:05	42.8	42.8	42.8	96	41.7	0	1	68	0.00	29.778 
17:10	42.8	42.8	42.8	96	41.7	0	2	68	0.00	29.778 
17:15	42.8	42.8	42.8	96	41.7	0	0	---	0.00	29.778 
17:20	42.8	42.8	42.8	96	41.7	0	1	68	0.00	29.778 
17:25	42.8	42.8	42.8	96	41.7	0	2	68	0.00	29.778 
17:30	42.9	42.9	42.9	96	41.8	0	2	68	0.00	29.776 
17:35	42.9	42.9	42.9	96	41.8	0	1	68	0.00	29.776 
17:40	42.9	42.9	42.9	96	41.8	0	1	68	0.00	29.776 
17:45	42.9	42.9	42.9	96	41.8	0	0	---	0.00	29.775 
17:50	42.9	42.9	42.9	96	41.8	0	1	68	0.00	29.775 
17:55	43.1	43.1	43.1	96	42.0	0	1	68	0.00	29.775 
18:00	43.1	43.1	43.1	96	42.0	0	0	---	0.00	29.776 
18:05	43.1	43.1	43.1	96	42.0	0	1	68	0.00	29.776 
18:10	43.1	43.1	43.1	96	42.0	0	0	---	0.00	29.776 
18:15	43.1	43.1	43.1	96	42.0	0	2	68	0.00	29.777 
18:20	43.1	43.1	43.1	96	42.0	0	1	68	0.00	29.777 
18:25	43.1	43.1	43.1	96	42.0	0	1	68	0.00	29.777 
18:30	43.2	43.2	43.2	96	42.1	0	1	68	0.00	29.778 
18:35	43.2	43.2	43.2	96	42.1	0	2	68	0.00	29.778 
18:40	43.3	43.3	43.3	96	42.2	0	2	68	0.00	29.778 
18:45	43.3	43.3	43.3	96	42.2	0	1	68	0.00	29.786 
18:50	43.3	43.3	43.3	96	42.2	0	1	68	0.00	29.786 
18:55	43.3	43.3	43.3	96	42.2	0	1	68	0.00	29.786 
19:00	43.3	43.3	43.3	96	42.2	0	1	68	0.00	29.787 
19:05	43.3	43.3	43.3	96	42.2	0	0	---	0.00	29.787 
19:10	43.5	43.5	43.5	96	42.4	0	3	68	0.00	29.787 
19:15	43.5	43.5	43.5	96	42.4	0	1	68	0.00	29.787 
19:20	43.5	43.5	43.5	96	42.4	0	1	68	0.00	29.787 
19:25	43.6	43.6	43.6	96	42.5	0	1	68	0.00	29.787 
19:30	43.6	43.6	43.6	97	42.8	0	2	68	0.00	29.783 
19:35	43.8	43.8	43.8	97	43.0	0	2	68	0.00	29.783 
19:40	43.8	43.8	43.8	97	43.0	0	2	68	0.00	29.783 
19:45	43.9	43.9	43.9	97	43.1	0	2	68	0.00	29.781 
19:50	43.9	43.9	43.9	97	43.1	0	4	68	0.00	29.781 
19:55	44.1	44.1	44.1	97	43.3	1	3	68	0.00	29.781 
20:00	44.1	44.1	44.1	97	43.3	1	3	68	0.00	29.778 
20:05	44.2	44.2	44.2	97	43.4	1	3	68	0.00	29.778 
20:10	44.2	44.2	44.2	97	43.4	1	3	68	0.00	29.778 
20:15	44.2	44.2	44.2	97	43.4	1	3	68	0.00	29.773 
20:20	44.2	44.2	44.2	97	43.4	0	2	68	0.00	29.773 
20:25	44.2	44.2	44.2	97	43.4	0	2	68	0.00	29.773 
20:30	44.2	44.2	44.2	97	43.4	0	2	68	0.00	29.773 
20:35	44.2	44.2	44.2	97	43.4	1	2	68	0.00	29.773 
20:40	44.3	44.3	44.3	97	43.5	0	2	68	0.00	29.773 
20:45	44.3	44.3	44.3	97	43.5	0	3	68	0.00	29.772 
20:50	44.3	44.3	44.3	97	43.5	0	1	68	0.00	29.772 
20:55	44.3	44.3	44.3	97	43.5	0	2	68	0.00	29.772 
21:00	44.5	44.5	44.5	97	43.7	1	2	68	0.00	29.772 
21:05	44.6	44.6	44.6	97	43.8	1	2	68	0.00	29.772 
21:10	44.6	44.6	44.6	97	43.8	0	1	68	0.00	29.772 
21:15	44.6	44.6	44.6	97	43.8	0	1	68	0.00	29.769 
21:20	44.6	44.6	44.6	97	43.8	0	2	68	0.00	29.769 
21:25	44.8	44.8	44.8	97	44.0	0	2	68	0.00	29.769 
21:30	44.8	44.8	44.8	97	44.0	0	3	68	0.01	29.766 
21:35	44.8	44.8	44.8	97	44.0	1	3	68	0.00	29.766 
21:40	44.9	44.9	44.9	97	44.1	0	2	68	0.00	29.766 
21:45	44.9	44.9	44.9	97	44.1	1	3	68	0.00	29.765 
21:50	44.9	44.9	44.9	97	44.1	0	1	90	0.00	29.765 
21:55	44.9	44.9	44.9	97	44.1	0	2	90	0.00	29.765 
22:00	44.9	44.9	44.9	97	44.1	0	2	90	0.00	29.766 
22:05	44.9	44.9	44.9	97	44.1	0	2	90	0.00	29.766 
22:10	44.9	44.9	44.9	97	44.1	0	2	90	0.00	29.766 
22:15	44.9	44.9	44.9	97	44.1	0	2	90	0.00	29.764 
22:20	44.9	44.9	44.9	97	44.1	0	2	90	0.00	29.764 
22:25	44.9	44.9	44.9	97	44.1	0	1	90	0.00	29.764 
22:30	44.9	44.9	44.9	96	43.8	0	1	90	0.01	29.764 
22:35	44.9	44.9	44.9	96	43.8	0	1	90	0.01	29.764 
22:40	44.9	44.9	44.9	97	44.1	0	1	90	0.00	29.764 
22:45	44.9	44.9	44.9	96	43.8	0	2	90	0.00	29.760 
22:50	44.9	44.9	44.9	97	44.1	0	1	90	0.01	29.760 
22:55	45.1	45.1	45.1	97	44.3	0	2	90	0.00	29.760 
23:00	45.2	45.2	45.2	97	44.4	0	2	90	0.00	29.760 
23:05	45.4	45.4	45.4	97	44.6	1	3	112	0.00	29.760 
23:10	45.4	45.4	45.4	97	44.6	0	2	22	0.00	29.760 
23:15	45.4	45.4	45.4	97	44.6	0	2	22	0.00	29.764 
23:20	45.4	45.4	45.4	97	44.6	0	3	22	0.00	29.764 
23:25	45.4	45.4	45.4	97	44.6	0	3	315	0.00	29.764 
23:30	45.4	45.4	45.4	97	44.6	0	3	315	0.00	29.766 
23:35	45.4	45.4	45.4	96	44.3	0	2	292	0.00	29.766 
23:40	45.2	45.2	45.2	96	44.1	0	1	292	0.00	29.766 
23:45	45.1	45.1	45.1	96	44.0	0	1	292	0.00	29.768 
23:50	45.1	45.1	45.1	96	44.0	0	2	292	0.00	29.768 
23:55	45.2	45.2	45.2	96	44.1	0	2	292	0.00	29.768 

CoCoRaHS
IN-AL-39
A2 Web Hosting
Creative Commons License
GoDaddy
search engine by freefind advanced

loaded 2018-11-21 01:01:13 • last modified 2010-11-18 10:43:29
Privacy PolicyDisclaimer
• wx.awcolley.com is powered by PmWiki v.2002016 •
• all content (unless otherwise noted) © 2018 A W Colley